sensor_id;sensor_type;location;lat;lon;timestamp;P1;durP1;ratioP1;P2;durP2;ratioP2
31692;SDS011;37436;53.230;6.614;2023-04-20T00:02:38;5.00;;;2.10;;
31692;SDS011;37436;53.230;6.614;2023-04-20T00:05:05;2.90;;;1.60;;
31692;SDS011;37436;53.230;6.614;2023-04-20T00:07:32;8.10;;;1.83;;
31692;SDS011;37436;53.230;6.614;2023-04-20T00:10:00;6.35;;;1.80;;
31692;SDS011;37436;53.230;6.614;2023-04-20T00:12:26;6.00;;;1.90;;
31692;SDS011;37436;53.230;6.614;2023-04-20T00:14:52;6.00;;;1.98;;
31692;SDS011;37436;53.230;6.614;2023-04-20T00:17:19;13.43;;;2.10;;
31692;SDS011;37436;53.230;6.614;2023-04-20T00:19:48;5.40;;;2.00;;
31692;SDS011;37436;53.230;6.614;2023-04-20T00:22:15;7.85;;;2.00;;
31692;SDS011;37436;53.230;6.614;2023-04-20T00:24:41;8.32;;;1.80;;
31692;SDS011;37436;53.230;6.614;2023-04-20T00:27:10;7.72;;;2.10;;
31692;SDS011;37436;53.230;6.614;2023-04-20T00:29:43;4.57;;;1.85;;
31692;SDS011;37436;53.230;6.614;2023-04-20T00:32:18;3.33;;;1.92;;
31692;SDS011;37436;53.230;6.614;2023-04-20T00:34:45;12.57;;;2.03;;
31692;SDS011;37436;53.230;6.614;2023-04-20T00:37:20;11.00;;;2.17;;
31692;SDS011;37436;53.230;6.614;2023-04-20T00:39:46;4.50;;;1.80;;
31692;SDS011;37436;53.230;6.614;2023-04-20T00:42:12;8.20;;;2.25;;
31692;SDS011;37436;53.230;6.614;2023-04-20T00:44:38;7.40;;;2.03;;
31692;SDS011;37436;53.230;6.614;2023-04-20T00:47:07;7.90;;;1.75;;
31692;SDS011;37436;53.230;6.614;2023-04-20T00:49:37;8.10;;;2.08;;
31692;SDS011;37436;53.230;6.614;2023-04-20T00:52:06;3.92;;;2.13;;
31692;SDS011;37436;53.230;6.614;2023-04-20T00:54:47;4.97;;;1.95;;
31692;SDS011;37436;53.230;6.614;2023-04-20T00:57:36;5.75;;;1.98;;
31692;SDS011;37436;53.230;6.614;2023-04-20T01:00:02;5.35;;;2.30;;
31692;SDS011;37436;53.230;6.614;2023-04-20T01:02:33;5.47;;;2.20;;
31692;SDS011;37436;53.230;6.614;2023-04-20T01:05:00;7.05;;;2.00;;
31692;SDS011;37436;53.230;6.614;2023-04-20T01:07:28;2.83;;;1.70;;
31692;SDS011;37436;53.230;6.614;2023-04-20T01:09:54;3.55;;;2.10;;
31692;SDS011;37436;53.230;6.614;2023-04-20T01:12:21;6.88;;;2.30;;
31692;SDS011;37436;53.230;6.614;2023-04-20T01:14:49;7.95;;;2.38;;
31692;SDS011;37436;53.230;6.614;2023-04-20T01:17:16;7.65;;;2.15;;
31692;SDS011;37436;53.230;6.614;2023-04-20T01:19:42;6.70;;;1.92;;
31692;SDS011;37436;53.230;6.614;2023-04-20T01:22:14;5.93;;;1.95;;
31692;SDS011;37436;53.230;6.614;2023-04-20T01:24:48;7.82;;;2.25;;
31692;SDS011;37436;53.230;6.614;2023-04-20T01:27:17;2.30;;;1.60;;
31692;SDS011;37436;53.230;6.614;2023-04-20T01:29:43;7.82;;;2.20;;
31692;SDS011;37436;53.230;6.614;2023-04-20T01:32:10;3.55;;;1.67;;
31692;SDS011;37436;53.230;6.614;2023-04-20T01:34:37;3.47;;;1.85;;
31692;SDS011;37436;53.230;6.614;2023-04-20T01:37:04;6.95;;;2.90;;
31692;SDS011;37436;53.230;6.614;2023-04-20T01:39:37;8.93;;;2.10;;
31692;SDS011;37436;53.230;6.614;2023-04-20T01:42:05;6.00;;;2.00;;
31692;SDS011;37436;53.230;6.614;2023-04-20T01:44:31;12.32;;;2.28;;
31692;SDS011;37436;53.230;6.614;2023-04-20T01:46:57;6.65;;;2.05;;
31692;SDS011;37436;53.230;6.614;2023-04-20T01:49:24;8.18;;;1.77;;
31692;SDS011;37436;53.230;6.614;2023-04-20T01:51:51;4.95;;;2.38;;
31692;SDS011;37436;53.230;6.614;2023-04-20T01:54:21;5.97;;;1.58;;
31692;SDS011;37436;53.230;6.614;2023-04-20T01:56:47;5.38;;;1.95;;
31692;SDS011;37436;53.230;6.614;2023-04-20T01:59:13;5.00;;;2.03;;
31692;SDS011;37436;53.230;6.614;2023-04-20T02:01:40;10.93;;;2.00;;
31692;SDS011;37436;53.230;6.614;2023-04-20T02:04:12;8.32;;;2.00;;
31692;SDS011;37436;53.230;6.614;2023-04-20T02:06:41;7.05;;;2.55;;
31692;SDS011;37436;53.230;6.614;2023-04-20T02:09:13;4.63;;;2.20;;
31692;SDS011;37436;53.230;6.614;2023-04-20T02:11:43;7.25;;;1.98;;
31692;SDS011;37436;53.230;6.614;2023-04-20T02:14:09;7.25;;;1.95;;
31692;SDS011;37436;53.230;6.614;2023-04-20T02:16:43;13.88;;;2.20;;
31692;SDS011;37436;53.230;6.614;2023-04-20T02:19:10;4.70;;;2.28;;
31692;SDS011;37436;53.230;6.614;2023-04-20T02:21:37;3.88;;;1.95;;
31692;SDS011;37436;53.230;6.614;2023-04-20T02:24:03;9.70;;;2.88;;
31692;SDS011;37436;53.230;6.614;2023-04-20T02:26:42;13.25;;;2.88;;
31692;SDS011;37436;53.230;6.614;2023-04-20T02:29:09;6.00;;;1.98;;
31692;SDS011;37436;53.230;6.614;2023-04-20T02:31:42;6.55;;;3.45;;
31692;SDS011;37436;53.230;6.614;2023-04-20T02:34:13;9.18;;;2.22;;
31692;SDS011;37436;53.230;6.614;2023-04-20T02:36:40;4.75;;;1.92;;
31692;SDS011;37436;53.230;6.614;2023-04-20T02:39:06;5.78;;;2.22;;
31692;SDS011;37436;53.230;6.614;2023-04-20T02:41:45;7.05;;;2.45;;
31692;SDS011;37436;53.230;6.614;2023-04-20T02:44:12;8.10;;;2.22;;
31692;SDS011;37436;53.230;6.614;2023-04-20T02:46:39;6.45;;;2.25;;
31692;SDS011;37436;53.230;6.614;2023-04-20T02:49:05;3.95;;;2.17;;
31692;SDS011;37436;53.230;6.614;2023-04-20T02:51:32;4.45;;;2.15;;
31692;SDS011;37436;53.230;6.614;2023-04-20T02:53:58;5.13;;;2.17;;
31692;SDS011;37436;53.230;6.614;2023-04-20T02:56:24;10.85;;;2.40;;
31692;SDS011;37436;53.230;6.614;2023-04-20T02:58:51;4.95;;;2.03;;
31692;SDS011;37436;53.230;6.614;2023-04-20T03:01:17;3.88;;;1.88;;
31692;SDS011;37436;53.230;6.614;2023-04-20T03:03:43;10.05;;;2.28;;
31692;SDS011;37436;53.230;6.614;2023-04-20T03:06:10;5.97;;;2.60;;
31692;SDS011;37436;53.230;6.614;2023-04-20T03:08:36;7.43;;;2.28;;
31692;SDS011;37436;53.230;6.614;2023-04-20T03:11:02;5.97;;;2.00;;
31692;SDS011;37436;53.230;6.614;2023-04-20T03:13:28;8.43;;;2.47;;
31692;SDS011;37436;53.230;6.614;2023-04-20T03:15:54;5.80;;;2.35;;
31692;SDS011;37436;53.230;6.614;2023-04-20T03:18:20;10.15;;;2.42;;
31692;SDS011;37436;53.230;6.614;2023-04-20T03:20:56;8.70;;;2.13;;
31692;SDS011;37436;53.230;6.614;2023-04-20T03:23:22;5.53;;;2.40;;
31692;SDS011;37436;53.230;6.614;2023-04-20T03:25:51;13.75;;;2.83;;
31692;SDS011;37436;53.230;6.614;2023-04-20T03:28:18;4.25;;;2.08;;
31692;SDS011;37436;53.230;6.614;2023-04-20T03:30:45;9.00;;;2.42;;
31692;SDS011;37436;53.230;6.614;2023-04-20T03:33:12;6.03;;;1.90;;
31692;SDS011;37436;53.230;6.614;2023-04-20T03:35:47;11.43;;;2.30;;
31692;SDS011;37436;53.230;6.614;2023-04-20T03:38:13;11.07;;;5.22;;
31692;SDS011;37436;53.230;6.614;2023-04-20T03:40:40;9.70;;;2.42;;
31692;SDS011;37436;53.230;6.614;2023-04-20T03:43:18;9.60;;;2.47;;
31692;SDS011;37436;53.230;6.614;2023-04-20T03:45:44;6.30;;;1.65;;
31692;SDS011;37436;53.230;6.614;2023-04-20T03:48:10;4.45;;;1.98;;
31692;SDS011;37436;53.230;6.614;2023-04-20T03:50:36;6.95;;;2.20;;
31692;SDS011;37436;53.230;6.614;2023-04-20T03:53:03;7.75;;;2.20;;
31692;SDS011;37436;53.230;6.614;2023-04-20T03:55:36;4.90;;;1.85;;
31692;SDS011;37436;53.230;6.614;2023-04-20T03:58:03;4.55;;;1.85;;
31692;SDS011;37436;53.230;6.614;2023-04-20T04:00:31;9.18;;;1.95;;
31692;SDS011;37436;53.230;6.614;2023-04-20T04:02:57;5.50;;;2.35;;
31692;SDS011;37436;53.230;6.614;2023-04-20T04:05:36;7.57;;;2.15;;
31692;SDS011;37436;53.230;6.614;2023-04-20T04:08:02;2.92;;;2.08;;
31692;SDS011;37436;53.230;6.614;2023-04-20T04:10:31;6.15;;;2.45;;
31692;SDS011;37436;53.230;6.614;2023-04-20T04:13:04;8.05;;;2.42;;
31692;SDS011;37436;53.230;6.614;2023-04-20T04:15:37;7.50;;;2.00;;
31692;SDS011;37436;53.230;6.614;2023-04-20T04:18:20;10.88;;;1.77;;
31692;SDS011;37436;53.230;6.614;2023-04-20T04:20:46;5.72;;;2.03;;
31692;SDS011;37436;53.230;6.614;2023-04-20T04:23:12;7.63;;;2.47;;
31692;SDS011;37436;53.230;6.614;2023-04-20T04:25:42;7.60;;;2.38;;
31692;SDS011;37436;53.230;6.614;2023-04-20T04:28:10;5.28;;;2.10;;
31692;SDS011;37436;53.230;6.614;2023-04-20T04:30:36;8.30;;;1.83;;
31692;SDS011;37436;53.230;6.614;2023-04-20T04:33:08;2.83;;;1.73;;
31692;SDS011;37436;53.230;6.614;2023-04-20T04:35:38;3.10;;;1.83;;
31692;SDS011;37436;53.230;6.614;2023-04-20T04:38:05;6.35;;;1.90;;
31692;SDS011;37436;53.230;6.614;2023-04-20T04:40:31;7.43;;;1.50;;
31692;SDS011;37436;53.230;6.614;2023-04-20T04:43:00;8.82;;;1.95;;
31692;SDS011;37436;53.230;6.614;2023-04-20T04:45:28;5.13;;;1.80;;
31692;SDS011;37436;53.230;6.614;2023-04-20T04:47:54;16.23;;;2.40;;
31692;SDS011;37436;53.230;6.614;2023-04-20T04:50:22;7.18;;;2.33;;
31692;SDS011;37436;53.230;6.614;2023-04-20T04:52:51;3.17;;;2.05;;
31692;SDS011;37436;53.230;6.614;2023-04-20T04:55:17;6.53;;;2.08;;
31692;SDS011;37436;53.230;6.614;2023-04-20T04:57:43;9.02;;;2.35;;
31692;SDS011;37436;53.230;6.614;2023-04-20T05:00:13;6.63;;;2.00;;
31692;SDS011;37436;53.230;6.614;2023-04-20T05:02:46;4.70;;;2.08;;
31692;SDS011;37436;53.230;6.614;2023-04-20T05:05:12;12.85;;;1.83;;
31692;SDS011;37436;53.230;6.614;2023-04-20T05:07:39;10.80;;;2.17;;
31692;SDS011;37436;53.230;6.614;2023-04-20T05:10:06;7.65;;;2.00;;
31692;SDS011;37436;53.230;6.614;2023-04-20T05:12:33;11.40;;;2.05;;
31692;SDS011;37436;53.230;6.614;2023-04-20T05:15:12;3.63;;;1.90;;
31692;SDS011;37436;53.230;6.614;2023-04-20T05:17:39;5.93;;;2.33;;
31692;SDS011;37436;53.230;6.614;2023-04-20T05:20:05;4.72;;;2.35;;
31692;SDS011;37436;53.230;6.614;2023-04-20T05:22:40;6.13;;;1.80;;
31692;SDS011;37436;53.230;6.614;2023-04-20T05:25:07;7.03;;;2.20;;
31692;SDS011;37436;53.230;6.614;2023-04-20T05:28:15;4.22;;;2.00;;
31692;SDS011;37436;53.230;6.614;2023-04-20T05:30:29;7.28;;;2.17;;
31692;SDS011;37436;53.230;6.614;2023-04-20T05:32:55;6.22;;;2.15;;
31692;SDS011;37436;53.230;6.614;2023-04-20T05:35:22;6.13;;;2.67;;
31692;SDS011;37436;53.230;6.614;2023-04-20T05:37:57;4.78;;;2.17;;
31692;SDS011;37436;53.230;6.614;2023-04-20T05:40:27;4.40;;;1.98;;
31692;SDS011;37436;53.230;6.614;2023-04-20T05:42:53;10.02;;;2.50;;
31692;SDS011;37436;53.230;6.614;2023-04-20T05:45:19;11.93;;;1.88;;
31692;SDS011;37436;53.230;6.614;2023-04-20T05:47:52;3.55;;;2.28;;
31692;SDS011;37436;53.230;6.614;2023-04-20T05:50:19;10.43;;;2.33;;
31692;SDS011;37436;53.230;6.614;2023-04-20T05:52:45;4.38;;;2.42;;
31692;SDS011;37436;53.230;6.614;2023-04-20T05:55:12;6.72;;;3.20;;
31692;SDS011;37436;53.230;6.614;2023-04-20T05:57:38;7.63;;;2.25;;
31692;SDS011;37436;53.230;6.614;2023-04-20T06:00:13;7.53;;;2.75;;
31692;SDS011;37436;53.230;6.614;2023-04-20T06:02:47;6.28;;;2.33;;
31692;SDS011;37436;53.230;6.614;2023-04-20T06:05:21;4.70;;;2.40;;
31692;SDS011;37436;53.230;6.614;2023-04-20T06:07:47;9.50;;;2.85;;
31692;SDS011;37436;53.230;6.614;2023-04-20T06:10:13;2.55;;;1.70;;
31692;SDS011;37436;53.230;6.614;2023-04-20T06:12:47;8.52;;;2.10;;
31692;SDS011;37436;53.230;6.614;2023-04-20T06:15:16;3.53;;;2.25;;
31692;SDS011;37436;53.230;6.614;2023-04-20T06:17:42;5.43;;;2.63;;
31692;SDS011;37436;53.230;6.614;2023-04-20T06:20:09;4.30;;;2.30;;
31692;SDS011;37436;53.230;6.614;2023-04-20T06:22:41;5.18;;;2.25;;
31692;SDS011;37436;53.230;6.614;2023-04-20T06:25:22;6.75;;;2.10;;
31692;SDS011;37436;53.230;6.614;2023-04-20T06:27:48;6.18;;;2.20;;
31692;SDS011;37436;53.230;6.614;2023-04-20T06:30:14;5.78;;;2.60;;
31692;SDS011;37436;53.230;6.614;2023-04-20T06:32:42;9.18;;;3.10;;
31692;SDS011;37436;53.230;6.614;2023-04-20T06:35:08;5.40;;;2.70;;
31692;SDS011;37436;53.230;6.614;2023-04-20T06:37:36;8.30;;;2.67;;
31692;SDS011;37436;53.230;6.614;2023-04-20T06:40:03;11.82;;;2.28;;
31692;SDS011;37436;53.230;6.614;2023-04-20T06:42:32;5.30;;;2.58;;
31692;SDS011;37436;53.230;6.614;2023-04-20T06:44:58;10.60;;;2.60;;
31692;SDS011;37436;53.230;6.614;2023-04-20T06:47:24;6.65;;;2.35;;
31692;SDS011;37436;53.230;6.614;2023-04-20T06:49:58;7.45;;;2.63;;
31692;SDS011;37436;53.230;6.614;2023-04-20T06:52:24;13.55;;;2.85;;
31692;SDS011;37436;53.230;6.614;2023-04-20T06:54:51;8.13;;;3.00;;
31692;SDS011;37436;53.230;6.614;2023-04-20T06:57:17;5.93;;;3.22;;
31692;SDS011;37436;53.230;6.614;2023-04-20T06:59:55;4.35;;;2.70;;
31692;SDS011;37436;53.230;6.614;2023-04-20T07:02:23;11.05;;;2.78;;
31692;SDS011;37436;53.230;6.614;2023-04-20T07:04:59;8.68;;;2.30;;
31692;SDS011;37436;53.230;6.614;2023-04-20T07:08:30;10.93;;;2.80;;
31692;SDS011;37436;53.230;6.614;2023-04-20T07:10:39;6.32;;;2.83;;
31692;SDS011;37436;53.230;6.614;2023-04-20T07:13:06;9.55;;;2.85;;
31692;SDS011;37436;53.230;6.614;2023-04-20T07:15:35;12.30;;;2.72;;
31692;SDS011;37436;53.230;6.614;2023-04-20T07:18:01;9.20;;;2.97;;
31692;SDS011;37436;53.230;6.614;2023-04-20T07:20:27;6.68;;;2.88;;
31692;SDS011;37436;53.230;6.614;2023-04-20T07:22:53;6.43;;;2.85;;
31692;SDS011;37436;53.230;6.614;2023-04-20T07:25:20;5.55;;;2.47;;
31692;SDS011;37436;53.230;6.614;2023-04-20T07:27:47;5.47;;;3.13;;
31692;SDS011;37436;53.230;6.614;2023-04-20T07:30:16;10.60;;;3.05;;
31692;SDS011;37436;53.230;6.614;2023-04-20T07:32:42;6.70;;;3.08;;
31692;SDS011;37436;53.230;6.614;2023-04-20T07:35:09;5.63;;;2.83;;
31692;SDS011;37436;53.230;6.614;2023-04-20T07:37:38;5.65;;;3.13;;
31692;SDS011;37436;53.230;6.614;2023-04-20T07:40:08;6.60;;;2.72;;
31692;SDS011;37436;53.230;6.614;2023-04-20T07:42:37;9.02;;;2.90;;
31692;SDS011;37436;53.230;6.614;2023-04-20T07:45:04;9.38;;;3.20;;
31692;SDS011;37436;53.230;6.614;2023-04-20T07:47:32;6.90;;;3.17;;
31692;SDS011;37436;53.230;6.614;2023-04-20T07:49:58;5.75;;;3.00;;
31692;SDS011;37436;53.230;6.614;2023-04-20T07:52:26;7.80;;;3.20;;
31692;SDS011;37436;53.230;6.614;2023-04-20T07:54:53;10.05;;;3.35;;
31692;SDS011;37436;53.230;6.614;2023-04-20T07:57:22;10.88;;;3.53;;
31692;SDS011;37436;53.230;6.614;2023-04-20T07:59:55;11.38;;;3.58;;
31692;SDS011;37436;53.230;6.614;2023-04-20T08:05:07;6.22;;;2.90;;
31692;SDS011;37436;53.230;6.614;2023-04-20T08:07:42;9.98;;;3.20;;
31692;SDS011;37436;53.230;6.614;2023-04-20T08:10:11;5.90;;;2.53;;
31692;SDS011;37436;53.230;6.614;2023-04-20T08:12:46;13.10;;;3.55;;
31692;SDS011;37436;53.230;6.614;2023-04-20T08:15:12;10.03;;;3.63;;
31692;SDS011;37436;53.230;6.614;2023-04-20T08:17:39;12.82;;;3.00;;
31692;SDS011;37436;53.230;6.614;2023-04-20T08:20:05;6.68;;;3.25;;
31692;SDS011;37436;53.230;6.614;2023-04-20T08:22:32;12.45;;;3.33;;
31692;SDS011;37436;53.230;6.614;2023-04-20T08:24:58;8.52;;;3.20;;
31692;SDS011;37436;53.230;6.614;2023-04-20T08:27:24;6.03;;;2.70;;
31692;SDS011;37436;53.230;6.614;2023-04-20T08:29:54;6.15;;;3.58;;
31692;SDS011;37436;53.230;6.614;2023-04-20T08:32:21;5.15;;;2.53;;
31692;SDS011;37436;53.230;6.614;2023-04-20T08:34:48;11.38;;;3.33;;
31692;SDS011;37436;53.230;6.614;2023-04-20T08:37:15;13.00;;;3.38;;
31692;SDS011;37436;53.230;6.614;2023-04-20T08:39:41;10.93;;;3.83;;
31692;SDS011;37436;53.230;6.614;2023-04-20T08:42:07;7.20;;;3.35;;
31692;SDS011;37436;53.230;6.614;2023-04-20T08:44:36;11.30;;;3.85;;
31692;SDS011;37436;53.230;6.614;2023-04-20T08:47:09;8.70;;;3.35;;
31692;SDS011;37436;53.230;6.614;2023-04-20T08:49:36;10.93;;;4.03;;
31692;SDS011;37436;53.230;6.614;2023-04-20T08:52:05;6.75;;;4.03;;
31692;SDS011;37436;53.230;6.614;2023-04-20T08:54:38;12.82;;;4.30;;
31692;SDS011;37436;53.230;6.614;2023-04-20T08:57:04;8.05;;;4.38;;
31692;SDS011;37436;53.230;6.614;2023-04-20T08:59:31;9.60;;;3.58;;
31692;SDS011;37436;53.230;6.614;2023-04-20T09:02:11;12.77;;;3.85;;
31692;SDS011;37436;53.230;6.614;2023-04-20T09:04:37;7.47;;;3.75;;
31692;SDS011;37436;53.230;6.614;2023-04-20T09:07:05;6.70;;;3.13;;
31692;SDS011;37436;53.230;6.614;2023-04-20T09:09:32;8.10;;;3.75;;
31692;SDS011;37436;53.230;6.614;2023-04-20T09:12:07;9.52;;;3.65;;
31692;SDS011;37436;53.230;6.614;2023-04-20T09:14:44;9.98;;;3.53;;
31692;SDS011;37436;53.230;6.614;2023-04-20T09:17:12;7.68;;;4.00;;
31692;SDS011;37436;53.230;6.614;2023-04-20T09:19:45;7.57;;;3.60;;
31692;SDS011;37436;53.230;6.614;2023-04-20T09:22:11;7.78;;;4.05;;
31692;SDS011;37436;53.230;6.614;2023-04-20T09:24:37;10.02;;;3.45;;
31692;SDS011;37436;53.230;6.614;2023-04-20T09:27:15;8.50;;;3.97;;
31692;SDS011;37436;53.230;6.614;2023-04-20T09:32:29;7.43;;;3.60;;
31692;SDS011;37436;53.230;6.614;2023-04-20T09:35:09;14.23;;;4.03;;
31692;SDS011;37436;53.230;6.614;2023-04-20T09:37:45;8.55;;;3.97;;
31692;SDS011;37436;53.230;6.614;2023-04-20T09:40:11;10.45;;;4.07;;
31692;SDS011;37436;53.230;6.614;2023-04-20T09:42:38;7.28;;;3.80;;
31692;SDS011;37436;53.230;6.614;2023-04-20T09:45:22;7.97;;;4.10;;
31692;SDS011;37436;53.230;6.614;2023-04-20T09:47:48;11.60;;;3.58;;
31692;SDS011;37436;53.230;6.614;2023-04-20T09:50:15;7.90;;;3.30;;
31692;SDS011;37436;53.230;6.614;2023-04-20T09:52:42;13.85;;;3.53;;
31692;SDS011;37436;53.230;6.614;2023-04-20T09:55:08;7.82;;;3.28;;
31692;SDS011;37436;53.230;6.614;2023-04-20T09:57:41;9.18;;;3.55;;
31692;SDS011;37436;53.230;6.614;2023-04-20T10:00:24;7.38;;;3.03;;
31692;SDS011;37436;53.230;6.614;2023-04-20T10:02:54;9.07;;;3.90;;
31692;SDS011;37436;53.230;6.614;2023-04-20T10:05:31;6.63;;;3.40;;
31692;SDS011;37436;53.230;6.614;2023-04-20T10:07:58;7.90;;;3.65;;
31692;SDS011;37436;53.230;6.614;2023-04-20T10:10:46;6.18;;;3.65;;
31692;SDS011;37436;53.230;6.614;2023-04-20T10:13:13;8.10;;;3.78;;
31692;SDS011;37436;53.230;6.614;2023-04-20T10:15:43;10.05;;;3.95;;
31692;SDS011;37436;53.230;6.614;2023-04-20T10:18:22;6.80;;;3.38;;
31692;SDS011;37436;53.230;6.614;2023-04-20T10:21:12;7.85;;;3.85;;
31692;SDS011;37436;53.230;6.614;2023-04-20T10:23:54;8.63;;;3.55;;
31692;SDS011;37436;53.230;6.614;2023-04-20T10:26:23;6.40;;;3.10;;
31692;SDS011;37436;53.230;6.614;2023-04-20T10:28:49;6.72;;;3.72;;
31692;SDS011;37436;53.230;6.614;2023-04-20T10:31:17;8.70;;;3.55;;
31692;SDS011;37436;53.230;6.614;2023-04-20T10:33:50;6.68;;;3.50;;
31692;SDS011;37436;53.230;6.614;2023-04-20T10:36:32;8.25;;;3.40;;
31692;SDS011;37436;53.230;6.614;2023-04-20T10:39:12;7.00;;;3.45;;
31692;SDS011;37436;53.230;6.614;2023-04-20T10:41:49;9.40;;;3.88;;
31692;SDS011;37436;53.230;6.614;2023-04-20T10:44:16;7.63;;;3.67;;
31692;SDS011;37436;53.230;6.614;2023-04-20T10:46:42;6.00;;;3.03;;
31692;SDS011;37436;53.230;6.614;2023-04-20T10:49:19;17.23;;;5.20;;
31692;SDS011;37436;53.230;6.614;2023-04-20T10:52:00;9.63;;;4.72;;
31692;SDS011;37436;53.230;6.614;2023-04-20T10:54:34;11.52;;;4.43;;
31692;SDS011;37436;53.230;6.614;2023-04-20T10:57:01;23.17;;;4.55;;
31692;SDS011;37436;53.230;6.614;2023-04-20T10:59:31;15.02;;;4.30;;
31692;SDS011;37436;53.230;6.614;2023-04-20T11:02:29;6.72;;;3.78;;
31692;SDS011;37436;53.230;6.614;2023-04-20T11:04:54;10.48;;;4.38;;
31692;SDS011;37436;53.230;6.614;2023-04-20T11:07:24;14.43;;;4.40;;
31692;SDS011;37436;53.230;6.614;2023-04-20T11:09:55;6.00;;;3.67;;
31692;SDS011;37436;53.230;6.614;2023-04-20T11:12:22;11.90;;;4.78;;
31692;SDS011;37436;53.230;6.614;2023-04-20T11:15:00;10.27;;;4.43;;
31692;SDS011;37436;53.230;6.614;2023-04-20T11:17:34;11.90;;;5.13;;
31692;SDS011;37436;53.230;6.614;2023-04-20T11:20:13;11.13;;;4.28;;
31692;SDS011;37436;53.230;6.614;2023-04-20T11:22:41;8.85;;;4.57;;
31692;SDS011;37436;53.230;6.614;2023-04-20T11:25:19;6.55;;;4.43;;
31692;SDS011;37436;53.230;6.614;2023-04-20T11:27:45;10.20;;;4.65;;
31692;SDS011;37436;53.230;6.614;2023-04-20T11:30:11;9.18;;;4.20;;
31692;SDS011;37436;53.230;6.614;2023-04-20T11:32:40;9.00;;;5.18;;
31692;SDS011;37436;53.230;6.614;2023-04-20T11:35:07;7.38;;;4.18;;
31692;SDS011;37436;53.230;6.614;2023-04-20T11:37:50;9.60;;;4.85;;
31692;SDS011;37436;53.230;6.614;2023-04-20T11:40:18;7.53;;;4.43;;
31692;SDS011;37436;53.230;6.614;2023-04-20T11:42:44;11.25;;;4.47;;
31692;SDS011;37436;53.230;6.614;2023-04-20T11:45:10;9.10;;;4.53;;
31692;SDS011;37436;53.230;6.614;2023-04-20T11:47:43;9.32;;;5.10;;
31692;SDS011;37436;53.230;6.614;2023-04-20T11:50:38;8.50;;;4.55;;
31692;SDS011;37436;53.230;6.614;2023-04-20T11:53:04;14.88;;;6.25;;
31692;SDS011;37436;53.230;6.614;2023-04-20T11:55:34;9.02;;;5.20;;
31692;SDS011;37436;53.230;6.614;2023-04-20T11:58:03;8.68;;;4.68;;
31692;SDS011;37436;53.230;6.614;2023-04-20T12:00:29;12.57;;;6.00;;
31692;SDS011;37436;53.230;6.614;2023-04-20T12:03:17;10.68;;;5.25;;
31692;SDS011;37436;53.230;6.614;2023-04-20T12:05:44;29.10;;;13.65;;
31692;SDS011;37436;53.230;6.614;2023-04-20T12:08:10;20.08;;;9.82;;
31692;SDS011;37436;53.230;6.614;2023-04-20T12:10:36;9.18;;;5.18;;
31692;SDS011;37436;53.230;6.614;2023-04-20T12:13:10;7.47;;;4.63;;
31692;SDS011;37436;53.230;6.614;2023-04-20T12:15:44;11.77;;;5.30;;
31692;SDS011;37436;53.230;6.614;2023-04-20T12:18:11;8.25;;;5.20;;
31692;SDS011;37436;53.230;6.614;2023-04-20T12:20:41;12.85;;;5.32;;
31692;SDS011;37436;53.230;6.614;2023-04-20T12:23:09;12.68;;;6.10;;
31692;SDS011;37436;53.230;6.614;2023-04-20T12:25:35;10.85;;;6.00;;
31692;SDS011;37436;53.230;6.614;2023-04-20T12:28:01;12.57;;;5.38;;
31692;SDS011;37436;53.230;6.614;2023-04-20T12:30:32;9.40;;;4.95;;
31692;SDS011;37436;53.230;6.614;2023-04-20T12:33:02;11.63;;;5.55;;
31692;SDS011;37436;53.230;6.614;2023-04-20T12:35:29;11.32;;;5.88;;
31692;SDS011;37436;53.230;6.614;2023-04-20T12:37:55;11.73;;;5.80;;
31692;SDS011;37436;53.230;6.614;2023-04-20T12:40:21;9.13;;;5.20;;
31692;SDS011;37436;53.230;6.614;2023-04-20T12:42:51;10.45;;;5.22;;
31692;SDS011;37436;53.230;6.614;2023-04-20T12:45:17;12.20;;;5.72;;
31692;SDS011;37436;53.230;6.614;2023-04-20T12:47:44;8.68;;;4.80;;
31692;SDS011;37436;53.230;6.614;2023-04-20T12:50:10;9.60;;;5.43;;
31692;SDS011;37436;53.230;6.614;2023-04-20T12:52:36;63.28;;;29.23;;
31692;SDS011;37436;53.230;6.614;2023-04-20T12:55:03;33.90;;;15.25;;
31692;SDS011;37436;53.230;6.614;2023-04-20T12:57:30;26.95;;;11.82;;
31692;SDS011;37436;53.230;6.614;2023-04-20T12:59:57;12.98;;;7.07;;
31692;SDS011;37436;53.230;6.614;2023-04-20T13:02:23;36.60;;;17.15;;
31692;SDS011;37436;53.230;6.614;2023-04-20T13:05:03;9.60;;;6.22;;
31692;SDS011;37436;53.230;6.614;2023-04-20T13:07:32;8.10;;;4.95;;
31692;SDS011;37436;53.230;6.614;2023-04-20T13:10:01;9.88;;;5.00;;
31692;SDS011;37436;53.230;6.614;2023-04-20T13:12:29;7.47;;;3.83;;
31692;SDS011;37436;53.230;6.614;2023-04-20T13:14:55;10.93;;;4.45;;
31692;SDS011;37436;53.230;6.614;2023-04-20T13:17:24;11.57;;;5.40;;
31692;SDS011;37436;53.230;6.614;2023-04-20T13:19:50;10.15;;;5.15;;
31692;SDS011;37436;53.230;6.614;2023-04-20T13:22:16;7.55;;;5.13;;
31692;SDS011;37436;53.230;6.614;2023-04-20T13:24:43;9.25;;;4.80;;
31692;SDS011;37436;53.230;6.614;2023-04-20T13:27:09;10.07;;;5.55;;
31692;SDS011;37436;53.230;6.614;2023-04-20T13:29:45;8.23;;;4.75;;
31692;SDS011;37436;53.230;6.614;2023-04-20T13:32:11;9.05;;;5.57;;
31692;SDS011;37436;53.230;6.614;2023-04-20T13:34:37;8.18;;;4.80;;
31692;SDS011;37436;53.230;6.614;2023-04-20T13:37:07;8.43;;;5.22;;
31692;SDS011;37436;53.230;6.614;2023-04-20T13:39:33;7.45;;;5.03;;
31692;SDS011;37436;53.230;6.614;2023-04-20T13:42:00;7.95;;;5.25;;
31692;SDS011;37436;53.230;6.614;2023-04-20T13:44:26;9.45;;;5.97;;
31692;SDS011;37436;53.230;6.614;2023-04-20T13:46:53;7.63;;;5.30;;
31692;SDS011;37436;53.230;6.614;2023-04-20T13:49:19;8.40;;;5.05;;
31692;SDS011;37436;53.230;6.614;2023-04-20T13:51:47;9.90;;;5.70;;
31692;SDS011;37436;53.230;6.614;2023-04-20T13:54:13;9.40;;;5.15;;
31692;SDS011;37436;53.230;6.614;2023-04-20T13:56:43;7.32;;;5.20;;
31692;SDS011;37436;53.230;6.614;2023-04-20T13:59:12;8.57;;;5.43;;
31692;SDS011;37436;53.230;6.614;2023-04-20T14:01:39;10.32;;;5.57;;
31692;SDS011;37436;53.230;6.614;2023-04-20T14:04:18;8.35;;;5.82;;
31692;SDS011;37436;53.230;6.614;2023-04-20T14:06:46;7.97;;;5.13;;
31692;SDS011;37436;53.230;6.614;2023-04-20T14:09:13;10.65;;;6.05;;
31692;SDS011;37436;53.230;6.614;2023-04-20T14:11:39;7.43;;;5.32;;
31692;SDS011;37436;53.230;6.614;2023-04-20T14:14:08;10.75;;;5.15;;
31692;SDS011;37436;53.230;6.614;2023-04-20T14:16:47;16.23;;;5.75;;
31692;SDS011;37436;53.230;6.614;2023-04-20T14:19:14;8.73;;;5.57;;
31692;SDS011;37436;53.230;6.614;2023-04-20T14:21:40;10.18;;;5.28;;
31692;SDS011;37436;53.230;6.614;2023-04-20T14:24:10;8.35;;;5.57;;
31692;SDS011;37436;53.230;6.614;2023-04-20T14:26:36;12.18;;;5.40;;
31692;SDS011;37436;53.230;6.614;2023-04-20T14:29:03;8.27;;;5.53;;
31692;SDS011;37436;53.230;6.614;2023-04-20T14:31:57;12.63;;;5.18;;
31692;SDS011;37436;53.230;6.614;2023-04-20T14:37:09;14.73;;;5.50;;
31692;SDS011;37436;53.230;6.614;2023-04-20T14:39:35;13.23;;;6.35;;
31692;SDS011;37436;53.230;6.614;2023-04-20T14:42:02;10.15;;;6.25;;
31692;SDS011;37436;53.230;6.614;2023-04-20T14:44:28;10.40;;;6.28;;
31692;SDS011;37436;53.230;6.614;2023-04-20T14:46:57;13.32;;;6.15;;
31692;SDS011;37436;53.230;6.614;2023-04-20T14:51:56;12.20;;;6.45;;
31692;SDS011;37436;53.230;6.614;2023-04-20T14:54:22;11.57;;;6.68;;
31692;SDS011;37436;53.230;6.614;2023-04-20T14:56:51;13.52;;;6.32;;
31692;SDS011;37436;53.230;6.614;2023-04-20T14:59:17;12.48;;;7.30;;
31692;SDS011;37436;53.230;6.614;2023-04-20T15:01:57;12.38;;;7.15;;
31692;SDS011;37436;53.230;6.614;2023-04-20T15:04:31;14.65;;;7.30;;
31692;SDS011;37436;53.230;6.614;2023-04-20T15:07:04;11.38;;;6.70;;
31692;SDS011;37436;53.230;6.614;2023-04-20T15:09:30;9.63;;;6.45;;